Time;durP1;ratioP1;P1;durP2;ratioP2;P2;SDS_P1;SDS_P2;PMS_P1;PMS_P2;Temp;Humidity;BMP_temperature;BMP_pressure;BME280_temperature;BME280_humidity;BME280_pressure;Samples;Min_cycle;Max_cycle;Signal;HPM_P1;HPM_P2
2022/04/04 00:00:46;;;;;;;8.38;3.53;;;4.40;99.90;;;;;;5033332;28;20199;-48
2022/04/04 00:03:12;;;;;;;8.90;4.13;;;4.30;99.90;;;;;;5033204;28;20558;-49
2022/04/04 00:05:38;;;;;;;5.25;3.58;;;4.30;99.90;;;;;;5033637;28;20182;-49
2022/04/04 00:08:04;;;;;;;4.10;3.50;;;4.30;99.90;;;;;;5033467;28;20224;-48
2022/04/04 00:10:29;;;;;;;5.40;3.88;;;4.30;99.90;;;;;;5033191;28;20172;-48
2022/04/04 00:12:55;;;;;;;14.52;4.53;;;4.30;99.90;;;;;;5033256;28;20159;-48
2022/04/04 00:15:21;;;;;;;4.20;3.55;;;4.20;99.90;;;;;;5033682;28;20198;-47
2022/04/04 00:17:47;;;;;;;5.18;3.53;;;4.20;99.90;;;;;;5033668;28;20506;-48
2022/04/04 00:20:13;;;;;;;5.18;3.25;;;4.20;99.90;;;;;;5033361;28;20179;-48
2022/04/04 00:22:40;;;;;;;6.28;3.80;;;4.20;99.90;;;;;;5033545;28;20237;-47
2022/04/04 00:25:07;;;;;;;4.63;3.55;;;4.10;99.90;;;;;;5033493;28;20178;-48
2022/04/04 00:27:32;;;;;;;4.47;3.40;;;4.10;99.90;;;;;;5033241;28;20171;-48
2022/04/04 00:29:58;;;;;;;3.55;2.90;;;4.10;99.90;;;;;;5033130;28;20222;-48
2022/04/04 00:32:23;;;;;;;6.90;3.72;;;4.20;99.90;;;;;;5033156;28;20167;-47
2022/04/04 00:34:49;;;;;;;6.43;3.38;;;4.20;99.90;;;;;;5033385;28;20168;-48
2022/04/04 00:37:14;;;;;;;5.82;3.45;;;4.20;99.90;;;;;;5033016;28;20505;-47
2022/04/04 00:39:41;;;;;;;4.80;3.42;;;4.10;99.90;;;;;;5032947;28;20168;-47
2022/04/04 00:42:07;;;;;;;4.47;3.45;;;4.20;99.90;;;;;;5033086;28;20207;-48
2022/04/04 00:44:33;;;;;;;6.60;3.58;;;4.10;99.90;;;;;;5032898;28;20247;-48
2022/04/04 00:46:58;;;;;;;5.50;3.95;;;4.10;99.90;;;;;;5032696;28;20291;-48
2022/04/04 00:49:25;;;;;;;9.75;3.97;;;4.10;99.90;;;;;;5032796;28;20574;-48
2022/04/04 00:51:50;;;;;;;10.00;4.05;;;4.10;99.90;;;;;;5033063;28;20163;-48
2022/04/04 00:54:16;;;;;;;11.98;4.68;;;4.10;99.90;;;;;;5032574;28;20224;-48
2022/04/04 00:56:43;;;;;;;6.70;4.35;;;4.00;99.90;;;;;;5032651;28;20164;-48
2022/04/04 00:59:13;;;;;;;10.18;4.53;;;4.00;99.90;;;;;;5032630;28;20255;-48
2022/04/04 01:01:40;;;;;;;7.35;4.25;;;3.90;99.90;;;;;;5032756;28;20211;-48
2022/04/04 01:04:08;;;;;;;9.25;4.70;;;4.00;99.90;;;;;;5032528;28;20164;-48
2022/04/04 01:06:35;;;;;;;4.53;3.63;;;4.00;99.90;;;;;;5032573;28;20619;-49
2022/04/04 01:09:02;;;;;;;11.05;4.78;;;3.90;99.90;;;;;;5032490;28;20217;-49
2022/04/04 01:11:28;;;;;;;6.50;4.18;;;3.90;99.90;;;;;;5032489;28;20182;-49
2022/04/04 01:13:53;;;;;;;6.53;4.15;;;3.90;99.90;;;;;;5032432;28;20171;-49
2022/04/04 01:16:19;;;;;;;6.22;3.85;;;3.90;99.90;;;;;;5032832;28;20167;-48
2022/04/04 01:18:45;;;;;;;6.90;4.32;;;3.90;99.90;;;;;;5032386;28;20610;-48
2022/04/04 01:21:10;;;;;;;4.90;4.15;;;3.80;99.90;;;;;;5032267;28;20253;-49
2022/04/04 01:23:42;;;;;;;4.72;4.22;;;3.90;99.90;;;;;;5032532;28;20258;-49
2022/04/04 01:26:13;;;;;;;11.80;4.60;;;3.80;99.90;;;;;;5032275;28;20246;-49
2022/04/04 01:28:39;;;;;;;6.60;4.35;;;3.80;99.90;;;;;;5032146;28;20650;-49
2022/04/04 01:31:06;;;;;;;6.60;4.13;;;3.70;99.90;;;;;;5032231;28;20168;-49
2022/04/04 01:33:32;;;;;;;7.00;4.38;;;3.70;99.90;;;;;;5032504;28;20580;-49
2022/04/04 01:35:58;;;;;;;6.05;4.47;;;3.70;99.90;;;;;;5032150;28;20160;-49
2022/04/04 01:38:24;;;;;;;4.50;3.85;;;3.70;99.90;;;;;;5032231;28;20159;-48
2022/04/04 01:40:51;;;;;;;6.95;4.05;;;3.70;99.90;;;;;;5031027;28;20629;-50
2022/04/04 01:43:16;;;;;;;7.05;4.75;;;3.70;99.90;;;;;;5032414;28;20174;-49
2022/04/04 01:48:26;;;;;;;6.70;4.03;;;3.60;99.90;;;;;;5031911;28;20226;-49
2022/04/04 01:50:52;;;;;;;4.97;3.80;;;3.60;99.90;;;;;;5031968;28;20167;-48
2022/04/04 01:53:27;;;;;;;5.40;4.03;;;3.70;99.90;;;;;;5032353;28;20213;-49
2022/04/04 01:55:54;;;;;;;7.35;4.70;;;3.70;99.90;;;;;;5032156;28;20171;-49
2022/04/04 01:58:21;;;;;;;7.53;4.30;;;3.60;99.90;;;;;;5032288;28;20169;-49
2022/04/04 02:00:46;;;;;;;6.93;4.40;;;3.60;99.90;;;;;;5032126;28;20249;-49
2022/04/04 02:03:12;;;;;;;8.27;5.18;;;3.60;99.90;;;;;;5031815;28;20210;-50
2022/04/04 02:05:38;;;;;;;6.97;4.50;;;3.50;99.90;;;;;;5033434;28;20167;-49
2022/04/04 02:08:05;;;;;;;7.53;4.78;;;3.50;99.90;;;;;;5035874;28;20221;-49
2022/04/04 02:10:31;;;;;;;6.38;5.03;;;3.50;99.90;;;;;;5034548;28;20512;-49
2022/04/04 02:12:57;;;;;;;10.80;5.03;;;3.50;99.90;;;;;;5035638;28;20583;-49
2022/04/04 02:15:23;;;;;;;8.27;4.60;;;3.50;99.90;;;;;;5035734;28;20203;-49
2022/04/04 02:17:48;;;;;;;13.15;5.65;;;3.50;99.90;;;;;;5036137;28;20182;-48
2022/04/04 02:20:14;;;;;;;17.08;5.50;;;3.40;99.90;;;;;;5035853;28;20172;-48
2022/04/04 02:22:40;;;;;;;12.98;5.97;;;3.40;99.90;;;;;;5035753;28;20568;-48
2022/04/04 02:25:06;;;;;;;12.98;5.78;;;3.40;99.90;;;;;;5035597;28;20178;-48
2022/04/04 02:27:31;;;;;;;12.10;6.00;;;3.40;99.90;;;;;;5035387;28;20546;-48
2022/04/04 02:29:57;;;;;;;14.18;6.45;;;3.30;99.90;;;;;;5035476;28;20164;-48
2022/04/04 02:32:23;;;;;;;11.68;6.47;;;3.30;99.90;;;;;;5035392;28;20167;-48
2022/04/04 02:34:50;;;;;;;11.43;7.85;;;3.30;99.90;;;;;;5035728;28;20175;-49
2022/04/04 02:37:16;;;;;;;10.23;6.68;;;3.20;99.90;;;;;;5035879;28;20214;-48
2022/04/04 02:39:42;;;;;;;8.77;6.20;;;3.20;99.90;;;;;;5035435;28;20203;-47
2022/04/04 02:42:08;;;;;;;10.13;6.70;;;3.20;99.90;;;;;;5035078;28;20295;-48
2022/04/04 02:44:35;;;;;;;13.27;6.72;;;3.20;99.90;;;;;;5035215;28;20695;-48
2022/04/04 02:47:00;;;;;;;12.43;7.03;;;3.20;99.90;;;;;;5034993;28;20223;-48
2022/04/04 02:49:28;;;;;;;15.50;7.68;;;3.20;99.90;;;;;;5035103;28;20167;-48
2022/04/04 02:51:55;;;;;;;10.23;7.65;;;3.20;99.90;;;;;;5035245;28;20198;-48
2022/04/04 02:54:20;;;;;;;13.20;7.47;;;3.20;99.90;;;;;;5035384;28;20213;-49
2022/04/04 02:56:46;;;;;;;15.27;7.88;;;3.20;99.90;;;;;;5035168;28;20172;-49
2022/04/04 02:59:12;;;;;;;11.43;7.90;;;3.20;99.90;;;;;;5034913;28;20205;-49
2022/04/04 03:01:38;;;;;;;12.10;7.38;;;3.20;99.90;;;;;;5034893;28;20601;-50
2022/04/04 03:04:03;;;;;;;14.40;8.65;;;3.20;99.90;;;;;;5034795;28;20179;-49
2022/04/04 03:06:29;;;;;;;12.98;8.88;;;3.20;99.90;;;;;;5034802;28;20606;-49
2022/04/04 03:08:55;;;;;;;11.32;8.32;;;3.20;99.90;;;;;;5034787;28;20213;-49
2022/04/04 03:11:20;;;;;;;12.10;8.45;;;3.20;99.90;;;;;;5034628;28;20164;-48
2022/04/04 03:13:46;;;;;;;10.30;7.88;;;3.30;99.90;;;;;;5034941;28;20261;-48
2022/04/04 03:16:12;;;;;;;15.65;8.02;;;3.20;99.90;;;;;;5034192;28;20577;-48
2022/04/04 03:18:38;;;;;;;14.07;8.10;;;3.20;99.90;;;;;;5034479;28;20168;-48
2022/04/04 03:21:04;;;;;;;12.02;7.43;;;3.20;99.90;;;;;;5034648;28;20209;-48
2022/04/04 03:23:31;;;;;;;10.13;7.25;;;3.30;99.90;;;;;;5034680;28;20201;-48
2022/04/04 03:25:57;;;;;;;10.85;8.27;;;3.20;99.90;;;;;;5034690;28;20171;-48
2022/04/04 03:28:23;;;;;;;10.23;7.45;;;3.20;99.90;;;;;;5034373;28;20647;-48
2022/04/04 03:30:48;;;;;;;11.48;7.38;;;3.20;99.90;;;;;;5034625;28;20254;-49
2022/04/04 03:33:15;;;;;;;10.95;7.70;;;3.20;99.90;;;;;;5032983;28;20175;-49
2022/04/04 03:35:41;;;;;;;9.95;7.55;;;3.20;99.90;;;;;;5034421;28;20175;-49
2022/04/04 03:38:07;;;;;;;10.20;7.22;;;3.20;99.90;;;;;;5034193;28;20258;-49
2022/04/04 03:40:33;;;;;;;11.90;7.45;;;3.10;99.90;;;;;;5034303;28;20179;-49
2022/04/04 03:43:00;;;;;;;10.02;7.35;;;3.20;99.90;;;;;;5034069;28;20167;-49
2022/04/04 03:45:26;;;;;;;11.52;7.50;;;3.20;99.90;;;;;;5034044;28;20174;-49
2022/04/04 03:47:52;;;;;;;13.30;7.93;;;3.20;99.90;;;;;;5033861;28;20225;-49
2022/04/04 03:50:19;;;;;;;14.52;7.93;;;3.30;99.90;;;;;;5034440;28;20171;-50
2022/04/04 03:52:52;;;;;;;8.98;7.13;;;3.20;99.90;;;;;;5034142;28;20507;-49
2022/04/04 03:55:18;;;;;;;9.63;7.45;;;3.20;99.90;;;;;;5034322;28;20171;-49
2022/04/04 03:57:45;;;;;;;15.70;7.35;;;3.10;99.90;;;;;;5033798;28;20171;-49
2022/04/04 04:00:11;;;;;;;11.75;7.32;;;3.10;99.90;;;;;;5033968;28;20175;-48
2022/04/04 04:02:37;;;;;;;11.98;7.05;;;3.20;99.90;;;;;;5033656;28;20210;-49
2022/04/04 04:05:04;;;;;;;10.18;6.88;;;3.10;99.90;;;;;;5033938;28;20164;-49
2022/04/04 04:07:30;;;;;;;13.35;7.72;;;3.10;99.90;;;;;;5033116;28;20172;-49
2022/04/04 04:09:55;;;;;;;14.18;7.80;;;3.10;99.90;;;;;;5033690;28;20190;-48
2022/04/04 04:12:21;;;;;;;12.77;7.60;;;3.30;99.90;;;;;;5033567;28;20232;-47
2022/04/04 04:14:52;;;;;;;14.13;7.90;;;3.30;99.90;;;;;;5033795;28;20199;-48
2022/04/04 04:17:22;;;;;;;11.02;7.28;;;3.10;99.90;;;;;;5033774;28;20226;-47
2022/04/04 04:22:32;;;;;;;12.85;7.50;;;3.20;99.90;;;;;;5033229;28;20580;-48
2022/04/04 04:25:01;;;;;;;12.15;7.32;;;3.20;99.90;;;;;;5033590;28;20168;-48
2022/04/04 04:27:26;;;;;;;15.35;8.90;;;3.20;99.90;;;;;;5032902;28;20597;-48
2022/04/04 04:29:52;;;;;;;18.55;8.40;;;3.30;99.90;;;;;;5032722;28;20206;-48
2022/04/04 04:32:18;;;;;;;14.80;7.22;;;3.20;99.90;;;;;;5033596;28;20531;-48
2022/04/04 04:34:46;;;;;;;14.32;8.82;;;3.20;99.90;;;;;;5033011;28;20511;-47
2022/04/04 04:37:13;;;;;;;11.85;7.75;;;3.20;99.90;;;;;;5033244;28;20254;-47
2022/04/04 04:39:39;;;;;;;14.25;8.55;;;3.20;99.90;;;;;;5032992;28;20563;-48
2022/04/04 04:42:05;;;;;;;16.40;8.23;;;3.20;99.90;;;;;;5032855;28;20630;-47
2022/04/04 04:44:31;;;;;;;8.68;4.90;;;3.20;99.90;;;;;;5032908;28;20647;-47
2022/04/04 04:46:57;;;;;;;11.70;4.88;;;3.20;99.90;;;;;;5032757;28;20215;-47
2022/04/04 04:49:25;;;;;;;11.88;5.65;;;3.20;99.90;;;;;;5033031;28;20199;-48
2022/04/04 04:51:51;;;;;;;11.63;5.75;;;3.20;99.90;;;;;;5032850;28;20172;-47
2022/04/04 04:54:17;;;;;;;15.73;6.72;;;3.20;99.90;;;;;;5033130;28;20198;-48
2022/04/04 04:56:43;;;;;;;13.60;6.65;;;3.20;99.90;;;;;;5032555;28;20646;-47
2022/04/04 04:59:09;;;;;;;8.60;6.30;;;3.20;99.90;;;;;;5032622;28;20174;-47
2022/04/04 05:01:35;;;;;;;12.45;6.30;;;3.20;99.90;;;;;;5032445;28;20664;-48
2022/04/04 05:04:01;;;;;;;11.85;6.47;;;3.30;99.90;;;;;;5032912;28;20181;-48
2022/04/04 05:06:26;;;;;;;13.93;5.88;;;3.30;99.90;;;;;;5032579;28;20167;-48
2022/04/04 05:08:55;;;;;;;8.25;5.85;;;3.30;99.90;;;;;;5032586;28;20168;-48
2022/04/04 05:11:21;;;;;;;6.32;4.60;;;3.30;99.90;;;;;;5032917;28;20167;-48
2022/04/04 05:13:47;;;;;;;9.35;4.97;;;3.30;99.90;;;;;;5032904;28;20199;-48
2022/04/04 05:16:14;;;;;;;11.10;7.03;;;3.40;99.90;;;;;;5032666;28;20644;-48
2022/04/04 05:18:42;;;;;;;7.22;4.75;;;3.40;99.90;;;;;;5032542;28;20262;-49
2022/04/04 05:21:09;;;;;;;9.07;6.18;;;3.40;99.90;;;;;;5032199;28;20211;-49
2022/04/04 05:23:38;;;;;;;10.27;6.32;;;3.40;99.90;;;;;;5031971;28;20171;-48
2022/04/04 05:26:04;;;;;;;11.68;6.10;;;3.40;99.90;;;;;;5032440;28;20547;-49
2022/04/04 05:28:31;;;;;;;8.35;5.88;;;3.50;99.90;;;;;;5032182;28;20708;-48
2022/04/04 05:30:57;;;;;;;12.68;5.55;;;3.50;99.90;;;;;;5032232;28;20160;-49
2022/04/04 05:33:23;;;;;;;9.02;5.97;;;3.50;99.90;;;;;;5032156;28;20163;-48
2022/04/04 05:35:48;;;;;;;9.07;5.28;;;3.50;99.90;;;;;;5032682;28;20171;-49
2022/04/04 05:38:14;;;;;;;8.63;5.38;;;3.60;99.90;;;;;;5031967;28;20170;-48
2022/04/04 05:40:40;;;;;;;12.13;5.57;;;3.60;99.90;;;;;;5032175;28;20179;-48
2022/04/04 05:43:07;;;;;;;7.05;5.63;;;3.60;99.90;;;;;;5032172;28;20189;-49
2022/04/04 05:45:35;;;;;;;7.95;4.72;;;3.60;99.90;;;;;;5032227;28;20690;-49
2022/04/04 05:48:01;;;;;;;12.30;5.97;;;3.60;99.90;;;;;;5031977;28;20214;-49
2022/04/04 05:50:26;;;;;;;6.97;3.50;;;3.60;99.90;;;;;;5032132;28;20174;-48
2022/04/04 05:52:52;;;;;;;9.85;5.85;;;3.70;99.90;;;;;;5031980;28;20171;-48
2022/04/04 05:55:18;;;;;;;8.05;4.75;;;3.80;99.90;;;;;;5032167;28;20570;-49
2022/04/04 05:57:44;;;;;;;7.75;4.78;;;3.70;99.90;;;;;;5032088;28;20254;-49
2022/04/04 06:00:13;;;;;;;10.40;5.55;;;3.70;99.90;;;;;;5031795;28;20267;-49
2022/04/04 06:02:40;;;;;;;8.52;4.80;;;3.80;99.90;;;;;;5031901;28;20242;-49
2022/04/04 06:05:07;;;;;;;9.50;5.20;;;3.80;99.90;;;;;;5031526;28;20537;-49
2022/04/04 06:07:33;;;;;;;8.07;4.88;;;3.80;99.90;;;;;;5031725;28;20510;-49
2022/04/04 06:09:59;;;;;;;14.27;5.97;;;3.80;99.90;;;;;;5031726;28;20176;-49
2022/04/04 06:12:25;;;;;;;9.23;5.25;;;3.80;99.90;;;;;;5031758;28;20164;-49
2022/04/04 06:14:50;;;;;;;9.52;4.68;;;3.90;99.90;;;;;;5031997;28;20650;-50
2022/04/04 06:17:15;;;;;;;6.13;3.72;;;3.90;99.90;;;;;;5032064;28;20550;-49
2022/04/04 06:19:43;;;;;;;9.88;4.13;;;3.90;99.90;;;;;;5031757;28;20182;-49
2022/04/04 06:22:09;;;;;;;5.03;4.00;;;3.90;99.90;;;;;;5031866;28;20253;-48
2022/04/04 06:24:35;;;;;;;6.93;4.80;;;4.00;99.90;;;;;;5032025;28;20171;-49
2022/04/04 06:27:00;;;;;;;13.20;5.10;;;4.00;99.90;;;;;;5031713;28;20218;-49
2022/04/04 06:29:27;;;;;;;8.15;4.57;;;4.10;99.90;;;;;;5031604;28;20178;-49
2022/04/04 06:31:52;;;;;;;7.32;4.43;;;4.10;99.90;;;;;;5031678;28;20258;-48
2022/04/04 06:34:19;;;;;;;7.45;4.20;;;4.20;99.90;;;;;;5031785;28;20265;-50
2022/04/04 06:36:46;;;;;;;6.30;4.40;;;4.10;99.90;;;;;;5031871;28;20195;-49
2022/04/04 06:39:11;;;;;;;4.78;3.75;;;4.20;99.90;;;;;;5031811;28;20174;-50
2022/04/04 06:41:37;;;;;;;4.82;3.72;;;4.30;99.90;;;;;;5031400;28;20286;-50
2022/04/04 06:44:04;;;;;;;5.93;4.38;;;4.30;99.90;;;;;;5031636;28;20193;-50
2022/04/04 06:46:29;;;;;;;5.10;3.92;;;4.40;99.90;;;;;;5031341;28;20166;-50
2022/04/04 06:48:55;;;;;;;8.70;4.05;;;4.50;99.90;;;;;;5031469;28;20167;-50
2022/04/04 06:51:21;;;;;;;7.80;3.80;;;4.60;99.90;;;;;;5032360;28;20190;-49
2022/04/04 06:53:47;;;;;;;6.57;3.70;;;4.90;99.90;;;;;;5035532;28;20179;-50
2022/04/04 06:56:13;;;;;;;5.05;3.22;;;5.00;99.90;;;;;;5034968;28;20175;-50
2022/04/04 06:58:39;;;;;;;9.18;4.30;;;5.00;99.90;;;;;;5034786;28;20509;-50
2022/04/04 07:01:04;;;;;;;4.10;2.85;;;5.10;99.90;;;;;;5034703;28;20206;-50
2022/04/04 07:03:30;;;;;;;5.22;3.97;;;5.10;99.90;;;;;;5034841;28;20164;-50
2022/04/04 07:05:56;;;;;;;7.40;4.32;;;5.30;99.90;;;;;;5034817;28;20639;-49
2022/04/04 07:08:21;;;;;;;7.82;2.55;;;5.40;99.90;;;;;;5034742;28;20272;-49
2022/04/04 07:10:48;;;;;;;6.68;3.53;;;5.50;99.90;;;;;;5035000;28;20176;-50
2022/04/04 07:13:14;;;;;;;6.10;3.42;;;5.60;99.90;;;;;;5034825;28;20269;-50
2022/04/04 07:15:41;;;;;;;9.10;4.32;;;5.70;99.90;;;;;;5034537;28;20192;-50
2022/04/04 07:18:07;;;;;;;11.07;3.88;;;5.80;99.90;;;;;;5034872;28;20182;-48
2022/04/04 07:20:33;;;;;;;8.98;3.42;;;5.90;99.90;;;;;;5034547;28;20174;-48
2022/04/04 07:22:59;;;;;;;6.82;3.30;;;5.90;99.90;;;;;;5034413;28;20237;-49
2022/04/04 07:25:25;;;;;;;4.28;3.15;;;5.90;99.90;;;;;;5033175;28;20171;-49
2022/04/04 07:27:51;;;;;;;5.47;3.22;;;6.00;99.90;;;;;;5034383;28;20532;-48
2022/04/04 07:30:18;;;;;;;5.82;3.05;;;6.10;99.90;;;;;;5033356;28;20172;-49
2022/04/04 07:32:45;;;;;;;7.88;3.03;;;6.20;99.90;;;;;;5034306;28;20246;-49
2022/04/04 07:35:12;;;;;;;4.05;2.90;;;6.30;99.90;;;;;;5034475;28;20175;-48
2022/04/04 07:37:42;;;;;;;6.13;2.95;;;6.30;99.90;;;;;;5034378;28;20223;-48
2022/04/04 07:40:14;;;;;;;12.55;3.28;;;6.40;99.90;;;;;;5034138;28;20191;-49
2022/04/04 07:42:41;;;;;;;2.70;2.15;;;6.50;99.90;;;;;;5034198;28;20207;-49
2022/04/04 07:45:08;;;;;;;5.35;2.22;;;6.30;99.90;;;;;;5034070;28;20164;-49
2022/04/04 07:47:34;;;;;;;7.30;2.63;;;6.40;99.90;;;;;;5033728;28;20211;-49
2022/04/04 07:50:00;;;;;;;7.85;2.80;;;6.50;99.90;;;;;;5033951;28;20212;-48
2022/04/04 07:52:27;;;;;;;3.95;2.83;;;6.40;99.90;;;;;;5033860;28;20164;-49
2022/04/04 07:54:53;;;;;;;12.93;3.78;;;6.40;99.90;;;;;;5033933;28;20507;-49
2022/04/04 07:57:19;;;;;;;3.70;2.92;;;6.40;99.90;;;;;;5034371;28;20293;-49
2022/04/04 07:59:45;;;;;;;3.80;2.85;;;6.40;99.90;;;;;;5033790;28;20178;-49
2022/04/04 08:02:11;;;;;;;8.25;2.97;;;6.50;99.90;;;;;;5033603;28;20207;-49
2022/04/04 08:04:37;;;;;;;6.10;2.55;;;6.60;99.90;;;;;;5032935;28;20179;-48
2022/04/04 08:07:03;;;;;;;4.13;2.33;;;6.60;99.90;;;;;;5033592;28;20203;-48
2022/04/04 08:09:28;;;;;;;5.47;3.60;;;6.60;99.90;;;;;;5033450;28;20164;-48
2022/04/04 08:11:54;;;;;;;7.45;2.90;;;6.70;99.90;;;;;;5033247;28;20247;-49
2022/04/04 08:14:21;;;;;;;6.00;2.70;;;6.70;99.90;;;;;;5033702;28;20525;-48
2022/04/04 08:16:47;;;;;;;8.23;3.28;;;6.70;99.90;;;;;;5033474;28;20235;-48
2022/04/04 08:19:13;;;;;;;6.65;2.90;;;6.70;99.90;;;;;;5033433;28;20164;-49
2022/04/04 08:21:41;;;;;;;7.65;4.38;;;6.80;99.90;;;;;;5033133;28;20207;-49
2022/04/04 08:24:07;;;;;;;4.93;2.92;;;6.90;99.90;;;;;;5033278;28;20222;-47
2022/04/04 08:26:33;;;;;;;6.03;2.97;;;7.00;99.90;;;;;;5032892;28;20167;-49
2022/04/04 08:28:59;;;;;;;3.75;3.10;;;7.00;99.90;;;;;;5033269;28;20670;-48
2022/04/04 08:31:24;;;;;;;4.05;2.58;;;7.10;99.90;;;;;;5033064;28;20178;-48
2022/04/04 08:33:51;;;;;;;5.97;2.80;;;7.10;99.90;;;;;;5033313;28;20174;-48
2022/04/04 08:36:17;;;;;;;5.72;2.95;;;7.10;99.90;;;;;;5033115;28;20635;-48
2022/04/04 08:38:42;;;;;;;5.82;2.35;;;7.10;99.90;;;;;;5024166;28;20178;-48
2022/04/04 08:41:10;;;;;;;8.98;3.45;;;7.10;99.90;;;;;;5022336;28;20666;-49
2022/04/04 08:43:39;;;;;;;4.93;2.90;;;6.90;99.90;;;;;;5013224;28;20168;-49
2022/04/04 08:46:06;;;;;;;5.63;2.58;;;7.00;99.90;;;;;;5013343;28;20639;-49
2022/04/04 08:48:34;;;;;;;4.85;2.92;;;7.00;99.90;;;;;;5012779;28;20679;-49
2022/04/04 08:50:59;;;;;;;7.75;3.03;;;7.00;99.90;;;;;;5013431;28;20573;-48
2022/04/04 08:53:25;;;;;;;8.30;3.13;;;7.00;99.90;;;;;;5012822;28;20179;-49
2022/04/04 08:55:51;;;;;;;4.68;2.20;;;7.10;99.90;;;;;;5013312;28;20226;-48
2022/04/04 08:58:17;;;;;;;4.15;2.53;;;7.00;99.90;;;;;;5013160;28;20262;-49
2022/04/04 09:00:42;;;;;;;6.50;2.83;;;7.10;99.90;;;;;;5012655;28;20251;-49
2022/04/04 09:03:09;;;;;;;6.40;2.83;;;7.20;99.90;;;;;;5012783;28;20183;-49
2022/04/04 09:05:58;;;;;;;10.13;3.08;;;7.20;99.90;;;;;;5013010;28;20172;-49
2022/04/04 09:08:26;;;;;;;7.82;2.97;;;7.10;99.90;;;;;;5012742;28;20175;-49
2022/04/04 09:10:57;;;;;;;3.85;2.70;;;7.30;99.90;;;;;;5012948;28;20176;-49
2022/04/04 09:13:25;;;;;;;5.78;3.08;;;7.40;99.90;;;;;;5012455;28;20645;-49
2022/04/04 09:15:59;;;;;;;6.75;3.08;;;7.60;99.90;;;;;;5012655;28;20554;-49
2022/04/04 09:18:45;;;;;;;6.05;3.05;;;7.70;99.90;;;;;;5012574;28;20616;-48
2022/04/04 09:21:20;;;;;;;5.03;3.25;;;7.50;99.90;;;;;;5012393;28;20292;-47
2022/04/04 09:23:45;;;;;;;5.75;3.15;;;7.60;99.90;;;;;;5012439;28;20180;-48
2022/04/04 09:26:39;;;;;;;16.92;4.07;;;7.70;99.90;;;;;;5012176;28;20196;-48
2022/04/04 09:29:23;;;;;;;3.63;3.00;;;7.80;99.90;;;;;;5012514;28;20176;-48
2022/04/04 09:31:52;;;;;;;7.85;3.25;;;7.70;99.90;;;;;;5011452;28;20167;-47
2022/04/04 09:34:19;;;;;;;6.55;3.05;;;7.60;99.90;;;;;;5012428;28;20226;-48
2022/04/04 09:36:47;;;;;;;5.03;3.13;;;7.60;99.90;;;;;;5012109;28;20172;-48
2022/04/04 09:39:14;;;;;;;2.97;2.65;;;7.60;99.90;;;;;;5012342;28;20194;-48
2022/04/04 09:41:40;;;;;;;7.97;3.65;;;7.60;99.90;;;;;;5012221;28;20238;-48
2022/04/04 09:44:08;;;;;;;8.40;3.08;;;7.60;99.90;;;;;;5012374;28;20175;-48
2022/04/04 09:46:39;;;;;;;7.13;4.10;;;7.70;99.90;;;;;;5012059;28;20221;-47
2022/04/04 09:49:06;;;;;;;7.85;3.40;;;7.80;99.90;;;;;;5012617;28;20583;-48
2022/04/04 09:51:50;;;;;;;5.15;3.08;;;7.70;99.90;;;;;;5012532;28;20175;-48
2022/04/04 09:54:24;;;;;;;5.43;3.28;;;7.70;99.90;;;;;;5012519;28;20171;-48
2022/04/04 09:56:56;;;;;;;4.55;3.42;;;7.80;99.90;;;;;;5012312;28;20219;-49
2022/04/04 09:59:22;;;;;;;3.78;3.15;;;7.80;99.90;;;;;;5010557;28;20259;-49
2022/04/04 10:01:48;;;;;;;9.43;3.67;;;7.80;99.90;;;;;;5012388;28;20298;-49
2022/04/04 10:04:14;;;;;;;15.82;3.78;;;7.80;99.90;;;;;;5012312;28;20620;-49
2022/04/04 10:06:45;;;;;;;8.05;4.15;;;7.80;99.90;;;;;;5012355;28;20214;-48
2022/04/04 10:09:10;;;;;;;3.80;2.88;;;7.90;99.90;;;;;;5012367;28;20176;-50
2022/04/04 10:11:40;;;;;;;5.15;3.42;;;7.80;99.90;;;;;;5010758;28;20164;-46
2022/04/04 10:14:06;;;;;;;13.48;4.32;;;7.70;99.90;;;;;;5012233;28;20258;-50
2022/04/04 10:16:33;;;;;;;4.13;3.38;;;7.80;99.90;;;;;;5012061;28;20851;-50
2022/04/04 10:18:59;;;;;;;5.07;3.50;;;7.80;99.90;;;;;;5011973;28;20242;-50
2022/04/04 10:21:26;;;;;;;5.18;3.58;;;7.70;99.90;;;;;;5011795;28;20208;-49
2022/04/04 10:23:55;;;;;;;8.25;3.35;;;7.70;99.90;;;;;;5011835;28;20583;-49
2022/04/04 10:26:25;;;;;;;4.03;3.45;;;7.60;99.90;;;;;;5012568;28;20573;-49
2022/04/04 10:28:50;;;;;;;4.10;3.28;;;7.60;99.90;;;;;;5015538;28;20164;-50
2022/04/04 10:31:23;;;;;;;5.80;3.67;;;7.70;99.90;;;;;;5018846;28;20171;-46
2022/04/04 10:33:50;;;;;;;7.88;3.70;;;7.90;99.90;;;;;;5035830;28;20178;-47
2022/04/04 10:36:22;;;;;;;4.68;3.63;;;7.80;99.90;;;;;;5034245;28;20530;-47
2022/04/04 10:38:50;;;;;;;5.55;2.92;;;7.80;99.90;;;;;;5035533;28;20175;-48
2022/04/04 10:41:20;;;;;;;8.80;3.85;;;7.70;99.90;;;;;;5034852;28;20198;-47
2022/04/04 10:43:51;;;;;;;3.55;3.10;;;7.70;99.90;;;;;;5034877;28;20255;-48
2022/04/04 10:46:21;;;;;;;4.88;3.17;;;7.80;99.90;;;;;;5033935;28;20174;-48
2022/04/04 10:49:00;;;;;;;6.13;3.92;;;7.70;99.90;;;;;;5035131;28;20214;-48
2022/04/04 10:51:28;;;;;;;5.43;4.20;;;7.70;99.90;;;;;;5034739;28;20473;-47
2022/04/04 10:54:02;;;;;;;5.53;2.88;;;7.80;99.90;;;;;;5035107;28;20230;-46
2022/04/04 10:56:29;;;;;;;5.50;3.63;;;7.70;99.90;;;;;;5034804;28;20182;-48
2022/04/04 10:59:21;;;;;;;3.90;3.25;;;7.80;99.90;;;;;;5034777;28;20542;-47
2022/04/04 11:01:54;;;;;;;4.60;3.47;;;7.80;99.90;;;;;;5034945;28;20270;-46
2022/04/04 11:04:25;;;;;;;5.88;4.55;;;7.80;99.90;;;;;;5035152;28;20194;-48
2022/04/04 11:09:53;;;;;;;4.18;3.20;;;7.90;99.90;;;;;;5034755;28;20548;-46
2022/04/04 11:12:22;;;;;;;8.68;3.25;;;7.70;99.90;;;;;;5034505;28;20191;-47
2022/04/04 11:15:07;;;;;;;8.30;3.47;;;7.60;99.90;;;;;;5035064;28;20171;-47
2022/04/04 11:17:38;;;;;;;3.80;3.25;;;7.50;99.90;;;;;;5034249;28;20176;-47
2022/04/04 11:20:21;;;;;;;5.00;3.28;;;7.40;99.90;;;;;;5034518;28;20179;-45
2022/04/04 11:22:51;;;;;;;5.75;4.13;;;7.20;99.90;;;;;;5034371;28;20203;-45
2022/04/04 11:25:19;;;;;;;5.75;3.95;;;7.10;99.90;;;;;;5034783;28;20179;-46
2022/04/04 11:27:48;;;;;;;3.63;3.22;;;6.80;99.90;;;;;;5033092;28;20190;-45
2022/04/04 11:30:16;;;;;;;5.00;3.83;;;6.70;99.90;;;;;;5034179;28;20258;-45
2022/04/04 11:32:43;;;;;;;3.25;2.95;;;6.80;99.90;;;;;;5034189;28;20331;-46
2022/04/04 11:35:14;;;;;;;4.72;4.28;;;6.70;99.90;;;;;;5032739;28;20225;-46
2022/04/04 11:37:48;;;;;;;3.90;3.35;;;6.70;99.90;;;;;;5033765;28;20577;-46
2022/04/04 11:40:18;;;;;;;4.65;3.55;;;6.80;99.90;;;;;;5033080;28;20546;-46
2022/04/04 11:42:47;;;;;;;4.20;3.65;;;6.60;99.90;;;;;;5033399;28;20203;-46
2022/04/04 11:45:25;;;;;;;5.78;4.03;;;6.40;99.90;;;;;;5033417;28;20168;-46
2022/04/04 11:47:56;;;;;;;5.15;4.03;;;6.40;99.90;;;;;;5033205;28;20230;-46
2022/04/04 11:50:25;;;;;;;6.18;4.00;;;6.30;99.90;;;;;;5033694;28;20174;-46
2022/04/04 11:52:59;;;;;;;3.35;3.05;;;6.40;99.90;;;;;;5033519;28;20666;-46
2022/04/04 11:55:27;;;;;;;6.20;4.47;;;6.30;99.90;;;;;;5033292;28;20222;-46
2022/04/04 11:57:58;;;;;;;10.60;6.10;;;6.20;99.90;;;;;;5033607;28;20237;-46
2022/04/04 12:00:30;;;;;;;7.45;4.07;;;6.20;99.90;;;;;;5033097;28;20166;-46
2022/04/04 12:02:56;;;;;;;5.30;3.80;;;4.70;99.90;;;;;;5033582;28;20207;-46
2022/04/04 12:05:23;;;;;;;6.65;4.82;;;6.00;99.90;;;;;;5033205;28;20197;-46
2022/04/04 12:07:50;;;;;;;14.45;4.55;;;6.10;99.90;;;;;;5033737;28;20186;-46
2022/04/04 12:10:31;;;;;;;6.47;3.97;;;6.10;99.90;;;;;;5033033;28;20285;-46
2022/04/04 12:13:08;;;;;;;6.70;5.32;;;6.10;99.90;;;;;;5032697;28;20622;-46
2022/04/04 12:15:40;;;;;;;7.60;4.00;;;6.10;99.90;;;;;;5033271;28;20182;-46
2022/04/04 12:18:07;;;;;;;5.13;4.47;;;6.00;99.90;;;;;;5032904;28;20167;-46
2022/04/04 12:20:44;;;;;;;14.40;9.98;;;6.10;99.90;;;;;;5032866;28;20179;-46
2022/04/04 12:25:58;;;;;;;7.97;4.43;;;5.70;99.90;;;;;;5033055;28;20210;-46
2022/04/04 12:28:26;;;;;;;5.13;4.25;;;5.70;99.90;;;;;;5032587;28;20185;-46
2022/04/04 12:30:53;;;;;;;6.68;5.28;;;5.70;99.90;;;;;;5032895;28;20584;-46
2022/04/04 12:33:18;;;;;;;7.25;3.58;;;5.70;99.90;;;;;;5032800;28;20269;-46
2022/04/04 12:35:45;;;;;;;4.75;4.05;;;5.70;99.90;;;;;;5032385;28;20167;-46
2022/04/04 12:38:25;;;;;;;7.20;5.50;;;5.80;99.90;;;;;;5032172;28;20175;-46
2022/04/04 12:41:05;;;;;;;5.75;4.57;;;5.80;99.90;;;;;;5032324;28;20155;-45
2022/04/04 12:43:31;;;;;;;4.38;3.63;;;5.80;99.90;;;;;;5032282;28;20167;-46
2022/04/04 12:45:57;;;;;;;5.30;4.40;;;5.80;99.90;;;;;;5032420;28;20171;-46
2022/04/04 12:48:36;;;;;;;5.32;3.50;;;5.70;99.90;;;;;;5032250;28;20255;-46
2022/04/04 12:51:02;;;;;;;7.63;5.50;;;5.70;99.90;;;;;;5032243;28;20631;-46
2022/04/04 12:53:27;;;;;;;4.72;4.13;;;5.70;99.90;;;;;;5032126;28;20650;-46
2022/04/04 12:56:06;;;;;;;4.45;3.85;;;5.70;99.90;;;;;;5032319;28;20168;-46
2022/04/04 12:58:33;;;;;;;8.18;5.45;;;5.60;99.90;;;;;;5032152;28;20182;-46
2022/04/04 13:01:13;;;;;;;8.65;5.35;;;5.70;99.90;;;;;;5032218;28;20175;-46
2022/04/04 13:03:47;;;;;;;7.82;4.88;;;5.70;99.90;;;;;;5032370;28;20172;-46
2022/04/04 13:06:13;;;;;;;8.32;4.28;;;5.70;99.90;;;;;;5031387;28;20182;-46
2022/04/04 13:08:38;;;;;;;8.35;5.32;;;5.70;99.90;;;;;;5032058;28;20175;-46